createdAt,value
2023-03-23T15:58:39.901Z,18.15
2023-03-23T16:01:17.456Z,18.14
2023-03-23T16:03:51.998Z,18.42
2023-03-23T16:06:24.616Z,18.57
2023-03-23T16:08:55.866Z,17.93
2023-03-23T16:11:23.849Z,17.90
2023-03-23T16:13:50.644Z,18.43
2023-03-23T16:16:21.283Z,18.37
2023-03-23T16:18:47.776Z,18.70
2023-03-23T16:21:14.241Z,18.84
2023-03-23T16:23:41.322Z,19.00
2023-03-23T16:26:07.805Z,18.80
2023-03-23T16:28:34.682Z,18.67
2023-03-23T16:31:01.316Z,18.83
2023-03-23T16:33:27.859Z,18.81
2023-03-23T16:35:54.446Z,18.91
2023-03-23T16:38:21.048Z,18.87
2023-03-23T16:40:47.546Z,18.82
2023-03-23T16:43:14.168Z,18.87
2023-03-23T16:45:44.352Z,18.94
2023-03-23T16:48:12.355Z,18.93
2023-03-23T16:50:39.304Z,19.07
2023-03-23T16:53:08.106Z,19.03
2023-03-23T16:55:36.593Z,18.93
2023-03-23T16:58:16.385Z,18.98
2023-03-23T17:00:48.967Z,18.92
2023-03-23T17:03:16.826Z,18.90
2023-03-23T17:05:45.055Z,18.88
2023-03-23T17:08:12.079Z,18.86
2023-03-23T17:10:40.771Z,18.78
2023-03-23T17:13:07.793Z,18.69
2023-03-23T17:15:37.369Z,18.67
2023-03-23T17:18:04.486Z,18.52
2023-03-23T17:20:31.471Z,18.48
2023-03-23T17:22:59.611Z,18.47
2023-03-23T17:25:27.543Z,18.37
2023-03-23T17:27:54.223Z,18.43
2023-03-23T17:30:20.768Z,18.43
2023-03-23T17:32:47.915Z,18.36
2023-03-23T17:35:15.320Z,18.39
2023-03-23T17:37:43.477Z,18.37
2023-03-23T17:40:11.014Z,18.41
2023-03-23T17:42:38.482Z,18.41
2023-03-23T17:45:06.635Z,18.39
2023-03-23T17:47:33.553Z,18.42
2023-03-23T17:50:00.308Z,18.40
2023-03-23T17:52:38.267Z,18.38
2023-03-23T17:55:05.482Z,18.37
2023-03-23T17:57:32.225Z,18.43
2023-03-23T17:59:58.743Z,18.40
2023-03-23T18:02:25.406Z,18.27
2023-03-23T18:04:52.079Z,18.33
2023-03-23T18:07:23.319Z,18.36
2023-03-23T18:09:50.529Z,18.33
2023-03-23T18:12:17.771Z,18.32
2023-03-23T18:14:44.432Z,18.25
2023-03-23T18:17:11.030Z,18.19
2023-03-23T18:19:37.398Z,18.20
2023-03-23T18:22:03.767Z,18.18
2023-03-23T18:24:30.324Z,18.24
2023-03-23T18:26:57.036Z,18.17
2023-03-23T18:29:23.529Z,18.12
2023-03-23T18:31:50.317Z,18.07
2023-03-23T18:34:16.909Z,18.05
2023-03-23T18:36:43.333Z,18.06
2023-03-23T18:39:11.991Z,18.05
2023-03-23T18:41:38.749Z,18.01
2023-03-23T18:44:06.299Z,17.96
2023-03-23T18:46:32.853Z,17.95
2023-03-23T18:48:59.391Z,17.90
2023-03-23T18:51:26.165Z,17.90
2023-03-23T18:53:52.741Z,17.81
2023-03-23T18:56:19.428Z,17.84
2023-03-23T18:58:46.350Z,17.73
2023-03-23T19:01:16.182Z,17.78
2023-03-23T19:03:43.562Z,17.91
2023-03-23T19:06:15.253Z,17.80
2023-03-23T19:08:41.735Z,17.84
2023-03-23T19:11:11.904Z,17.84
2023-03-23T19:13:40.306Z,17.84
2023-03-23T19:16:11.331Z,17.80
2023-03-23T19:18:37.855Z,17.82
2023-03-23T19:23:33.827Z,17.80
2023-03-23T19:26:00.516Z,17.73
2023-03-23T19:30:58.787Z,17.65
2023-03-23T19:33:26.355Z,17.72
2023-03-23T19:36:05.898Z,17.69
2023-03-23T19:38:35.852Z,17.74
2023-03-23T19:41:03.901Z,17.84
2023-03-23T19:43:32.010Z,17.84
2023-03-23T19:45:58.476Z,17.90
2023-03-23T19:48:24.936Z,17.87
2023-03-23T19:50:53.045Z,17.83
2023-03-23T19:53:20.608Z,17.88
2023-03-23T19:55:47.461Z,17.84
2023-03-23T19:58:14.507Z,17.83
2023-03-23T20:00:41.194Z,17.80
2023-03-23T20:03:07.841Z,17.74
2023-03-23T20:05:35.705Z,17.76
2023-03-23T20:08:04.436Z,17.75
2023-03-23T20:10:34.593Z,17.77
2023-03-23T20:13:04.927Z,17.73
2023-03-23T20:15:32.108Z,17.77
2023-03-23T20:17:58.955Z,17.75
2023-03-23T20:20:26.443Z,17.75
2023-03-23T20:22:55.070Z,17.72
2023-03-23T20:25:23.114Z,17.67
2023-03-23T20:27:49.578Z,17.72
2023-03-23T20:30:17.010Z,17.68
2023-03-23T20:32:46.363Z,17.68
2023-03-23T20:35:14.595Z,17.62
2023-03-23T20:37:41.133Z,17.62
2023-03-23T20:40:14.603Z,17.65
2023-03-23T20:42:43.949Z,17.64
2023-03-23T20:45:12.758Z,17.63
2023-03-23T20:47:40.285Z,17.62
2023-03-23T20:50:08.709Z,17.63
2023-03-23T20:52:35.296Z,17.61
2023-03-23T20:55:02.405Z,17.63
2023-03-23T20:57:28.984Z,17.65
2023-03-23T20:59:55.803Z,17.60
2023-03-23T21:02:25.595Z,17.63
2023-03-23T21:04:52.790Z,17.65
2023-03-23T21:07:23.112Z,17.69
2023-03-23T21:09:49.723Z,17.66
2023-03-23T21:12:16.677Z,17.59
2023-03-23T21:14:44.830Z,17.59
2023-03-23T21:17:11.427Z,17.44
2023-03-23T21:19:38.198Z,17.43
2023-03-23T21:22:05.175Z,17.40
2023-03-23T21:24:32.077Z,17.33
2023-03-23T21:27:00.557Z,17.31
2023-03-23T21:29:27.989Z,17.18
2023-03-23T21:32:07.703Z,17.21
2023-03-23T21:34:35.989Z,17.32
2023-03-23T21:37:02.346Z,17.27
2023-03-23T21:39:28.955Z,17.35
2023-03-23T21:41:55.544Z,17.38
2023-03-23T21:44:22.137Z,17.42
2023-03-23T21:46:48.682Z,17.44
2023-03-23T21:49:15.427Z,17.47
2023-03-23T21:51:43.467Z,17.48
2023-03-23T21:54:11.596Z,17.46
2023-03-23T21:56:38.403Z,17.40
2023-03-23T21:59:07.393Z,17.24
2023-03-23T22:01:36.592Z,17.08
2023-03-23T22:04:04.005Z,17.01
2023-03-23T22:06:31.366Z,16.91
2023-03-23T22:08:58.059Z,16.84
2023-03-23T22:11:27.662Z,16.75
2023-03-23T22:13:56.197Z,16.69
2023-03-23T22:16:24.306Z,16.67
2023-03-23T22:18:52.700Z,16.53
2023-03-23T22:21:22.016Z,16.50
2023-03-23T22:23:49.156Z,16.46
2023-03-23T22:26:16.637Z,16.49
2023-03-23T22:28:44.025Z,16.36
2023-03-23T22:31:18.437Z,16.37
2023-03-23T22:33:47.343Z,16.26
2023-03-23T22:36:14.611Z,16.17
2023-03-23T22:38:43.938Z,16.15
2023-03-23T22:41:16.489Z,16.09
2023-03-23T22:43:43.193Z,15.99
2023-03-23T22:46:09.840Z,15.97
2023-03-23T22:48:36.310Z,15.92
2023-03-23T22:51:03.659Z,15.88
2023-03-23T22:53:30.434Z,15.92
2023-03-23T22:55:57.971Z,15.91
2023-03-23T22:58:25.557Z,15.92
2023-03-23T23:00:58.450Z,15.94
2023-03-23T23:03:26.600Z,15.95
2023-03-23T23:05:54.352Z,15.91
2023-03-23T23:08:23.795Z,15.98
2023-03-23T23:10:52.456Z,15.96
2023-03-23T23:13:19.797Z,15.99
2023-03-23T23:15:49.616Z,16.11
2023-03-23T23:18:16.388Z,16.09
2023-03-23T23:20:43.374Z,16.18
2023-03-23T23:23:10.828Z,16.18
2023-03-23T23:25:38.543Z,16.24
2023-03-23T23:28:06.522Z,16.32
2023-03-23T23:30:34.571Z,16.45
2023-03-23T23:33:01.783Z,16.31
2023-03-23T23:35:28.501Z,16.13
2023-03-23T23:37:55.039Z,16.04
2023-03-23T23:40:21.535Z,16.10
2023-03-23T23:42:50.124Z,16.21
2023-03-23T23:45:17.364Z,16.38
2023-03-23T23:47:43.841Z,16.19
2023-03-23T23:50:11.936Z,16.13
2023-03-23T23:52:39.557Z,15.98
2023-03-23T23:55:07.430Z,15.84
2023-03-23T23:57:34.483Z,15.87
